Terminal Aerodrome Forecast
Issued by NWS

Home | Current Version | Previous Version | Text Only | Print | Product List | Glossary On
Versions: 1 2 3 4 5 6 7 8 9 10 11 12 13
659
FTUS43 KEAX 071121
TAFMKC
TAF
KMKC 071121Z 0712/0812 23011KT P6SM BKN200 WS020/25045KT
     FM071400 26012KT P6SM BKN150
     FM071700 30018G27KT P6SM BKN120
     FM080100 30013KT P6SM OVC080
     FM080900 31014KT 5SM -SHSN BR BKN020=

USA.gov is the U.S. government's official web portal to all federal, state and local government web resources and services.